sensor_id;sensor_type;location;lat;lon;timestamp;P1;durP1;ratioP1;P2;durP2;ratioP2
71387;SDS011;59201;59.902;10.520;2022-09-03T00:02:39;3.97;;;1.10;;
71387;SDS011;59201;59.902;10.520;2022-09-03T00:05:09;4.80;;;1.20;;
71387;SDS011;59201;59.902;10.520;2022-09-03T00:10:24;6.13;;;1.20;;
71387;SDS011;59201;59.902;10.520;2022-09-03T00:12:53;4.68;;;1.10;;
71387;SDS011;59201;59.902;10.520;2022-09-03T00:15:21;5.20;;;1.63;;
71387;SDS011;59201;59.902;10.520;2022-09-03T00:20:16;4.10;;;1.20;;
71387;SDS011;59201;59.902;10.520;2022-09-03T00:22:46;4.57;;;1.17;;
71387;SDS011;59201;59.902;10.520;2022-09-03T00:25:15;5.55;;;1.30;;
71387;SDS011;59201;59.902;10.520;2022-09-03T00:27:42;4.70;;;1.10;;
71387;SDS011;59201;59.902;10.520;2022-09-03T00:30:11;3.85;;;1.17;;
71387;SDS011;59201;59.902;10.520;2022-09-03T00:32:44;4.28;;;1.20;;
71387;SDS011;59201;59.902;10.520;2022-09-03T00:37:56;4.03;;;1.20;;
71387;SDS011;59201;59.902;10.520;2022-09-03T00:45:48;4.13;;;1.20;;
71387;SDS011;59201;59.902;10.520;2022-09-03T00:48:22;4.40;;;1.20;;
71387;SDS011;59201;59.902;10.520;2022-09-03T00:51:12;4.32;;;1.42;;
71387;SDS011;59201;59.902;10.520;2022-09-03T00:53:49;3.77;;;1.00;;
71387;SDS011;59201;59.902;10.520;2022-09-03T01:32:26;4.70;;;1.20;;
71387;SDS011;59201;59.902;10.520;2022-09-03T01:42:52;3.53;;;1.15;;
71387;SDS011;59201;59.902;10.520;2022-09-03T01:45:30;4.83;;;1.50;;
71387;SDS011;59201;59.902;10.520;2022-09-03T01:50:50;4.72;;;1.30;;
71387;SDS011;59201;59.902;10.520;2022-09-03T02:01:02;3.92;;;1.10;;
71387;SDS011;59201;59.902;10.520;2022-09-03T02:03:37;4.65;;;1.40;;
71387;SDS011;59201;59.902;10.520;2022-09-03T02:06:05;5.18;;;1.10;;
71387;SDS011;59201;59.902;10.520;2022-09-03T02:08:31;5.05;;;1.40;;
71387;SDS011;59201;59.902;10.520;2022-09-03T02:10:58;4.60;;;1.30;;
71387;SDS011;59201;59.902;10.520;2022-09-03T02:13:31;5.03;;;1.10;;
71387;SDS011;59201;59.902;10.520;2022-09-03T02:16:01;4.75;;;1.40;;
71387;SDS011;59201;59.902;10.520;2022-09-03T02:18:32;4.78;;;1.30;;
71387;SDS011;59201;59.902;10.520;2022-09-03T02:21:00;8.07;;;1.80;;
71387;SDS011;59201;59.902;10.520;2022-09-03T02:23:27;4.17;;;1.20;;
71387;SDS011;59201;59.902;10.520;2022-09-03T02:25:57;4.10;;;1.05;;
71387;SDS011;59201;59.902;10.520;2022-09-03T02:28:24;4.57;;;1.10;;
71387;SDS011;59201;59.902;10.520;2022-09-03T02:30:51;4.95;;;1.10;;
71387;SDS011;59201;59.902;10.520;2022-09-03T02:33:17;4.65;;;1.30;;
71387;SDS011;59201;59.902;10.520;2022-09-03T02:35:43;7.03;;;1.27;;
71387;SDS011;59201;59.902;10.520;2022-09-03T02:38:11;3.72;;;1.00;;
71387;SDS011;59201;59.902;10.520;2022-09-03T02:40:37;4.25;;;1.15;;
71387;SDS011;59201;59.902;10.520;2022-09-03T02:43:03;3.78;;;1.00;;
71387;SDS011;59201;59.902;10.520;2022-09-03T02:45:30;4.38;;;1.20;;
71387;SDS011;59201;59.902;10.520;2022-09-03T02:47:58;5.20;;;1.20;;
71387;SDS011;59201;59.902;10.520;2022-09-03T02:50:24;4.30;;;1.10;;
71387;SDS011;59201;59.902;10.520;2022-09-03T02:52:51;4.40;;;1.20;;
71387;SDS011;59201;59.902;10.520;2022-09-03T02:55:18;4.03;;;1.30;;
71387;SDS011;59201;59.902;10.520;2022-09-03T02:57:44;4.50;;;1.20;;
71387;SDS011;59201;59.902;10.520;2022-09-03T03:00:11;4.27;;;1.20;;
71387;SDS011;59201;59.902;10.520;2022-09-03T03:02:37;4.45;;;1.25;;
71387;SDS011;59201;59.902;10.520;2022-09-03T03:05:04;4.15;;;1.20;;
71387;SDS011;59201;59.902;10.520;2022-09-03T03:07:33;3.63;;;1.13;;
71387;SDS011;59201;59.902;10.520;2022-09-03T03:10:01;4.00;;;1.20;;
71387;SDS011;59201;59.902;10.520;2022-09-03T03:12:27;3.90;;;1.10;;
71387;SDS011;59201;59.902;10.520;2022-09-03T03:14:55;4.60;;;1.30;;
71387;SDS011;59201;59.902;10.520;2022-09-03T03:17:21;3.83;;;1.10;;
71387;SDS011;59201;59.902;10.520;2022-09-03T03:19:47;4.90;;;1.30;;
71387;SDS011;59201;59.902;10.520;2022-09-03T03:22:13;4.90;;;1.23;;
71387;SDS011;59201;59.902;10.520;2022-09-03T03:24:39;3.80;;;1.00;;
71387;SDS011;59201;59.902;10.520;2022-09-03T03:27:05;4.20;;;1.25;;
71387;SDS011;59201;59.902;10.520;2022-09-03T03:29:34;4.95;;;1.40;;
71387;SDS011;59201;59.902;10.520;2022-09-03T03:32:00;4.40;;;1.30;;
71387;SDS011;59201;59.902;10.520;2022-09-03T03:34:26;4.80;;;1.30;;
71387;SDS011;59201;59.902;10.520;2022-09-03T03:36:52;4.77;;;1.20;;
71387;SDS011;59201;59.902;10.520;2022-09-03T03:39:19;3.80;;;1.10;;
71387;SDS011;59201;59.902;10.520;2022-09-03T03:41:45;4.13;;;1.10;;
71387;SDS011;59201;59.902;10.520;2022-09-03T03:44:11;4.28;;;1.15;;
71387;SDS011;59201;59.902;10.520;2022-09-03T03:46:39;3.95;;;1.23;;
71387;SDS011;59201;59.902;10.520;2022-09-03T03:49:06;4.10;;;1.10;;
71387;SDS011;59201;59.902;10.520;2022-09-03T03:51:32;4.45;;;1.20;;
71387;SDS011;59201;59.902;10.520;2022-09-03T03:53:59;3.80;;;1.10;;
71387;SDS011;59201;59.902;10.520;2022-09-03T03:56:25;3.88;;;1.00;;
71387;SDS011;59201;59.902;10.520;2022-09-03T03:58:52;5.40;;;1.10;;
71387;SDS011;59201;59.902;10.520;2022-09-03T04:01:19;3.63;;;1.03;;
71387;SDS011;59201;59.902;10.520;2022-09-03T04:03:45;5.28;;;1.10;;
71387;SDS011;59201;59.902;10.520;2022-09-03T04:06:13;4.22;;;1.20;;
71387;SDS011;59201;59.902;10.520;2022-09-03T04:08:40;4.72;;;1.40;;
71387;SDS011;59201;59.902;10.520;2022-09-03T04:11:07;5.03;;;1.40;;
71387;SDS011;59201;59.902;10.520;2022-09-03T04:13:35;4.40;;;1.30;;
71387;SDS011;59201;59.902;10.520;2022-09-03T04:16:02;4.70;;;1.23;;
71387;SDS011;59201;59.902;10.520;2022-09-03T04:18:29;5.38;;;2.10;;
71387;SDS011;59201;59.902;10.520;2022-09-03T04:21:01;5.47;;;1.30;;
71387;SDS011;59201;59.902;10.520;2022-09-03T04:23:28;4.20;;;1.20;;
71387;SDS011;59201;59.902;10.520;2022-09-03T04:25:55;6.03;;;1.20;;
71387;SDS011;59201;59.902;10.520;2022-09-03T04:28:21;3.90;;;1.10;;
71387;SDS011;59201;59.902;10.520;2022-09-03T04:30:47;4.32;;;1.20;;
71387;SDS011;59201;59.902;10.520;2022-09-03T04:33:13;3.67;;;1.10;;
71387;SDS011;59201;59.902;10.520;2022-09-03T04:35:39;4.47;;;1.30;;
71387;SDS011;59201;59.902;10.520;2022-09-03T04:38:06;4.93;;;1.10;;
71387;SDS011;59201;59.902;10.520;2022-09-03T04:40:32;4.22;;;1.20;;
71387;SDS011;59201;59.902;10.520;2022-09-03T04:42:58;6.07;;;1.30;;
71387;SDS011;59201;59.902;10.520;2022-09-03T04:45:25;3.78;;;1.10;;
71387;SDS011;59201;59.902;10.520;2022-09-03T04:47:58;4.20;;;1.05;;
71387;SDS011;59201;59.902;10.520;2022-09-03T04:50:25;4.50;;;1.20;;
71387;SDS011;59201;59.902;10.520;2022-09-03T04:52:52;4.75;;;1.25;;
71387;SDS011;59201;59.902;10.520;2022-09-03T04:55:20;4.68;;;1.10;;
71387;SDS011;59201;59.902;10.520;2022-09-03T04:57:46;4.40;;;1.20;;
71387;SDS011;59201;59.902;10.520;2022-09-03T05:00:12;4.72;;;1.40;;
71387;SDS011;59201;59.902;10.520;2022-09-03T05:02:42;3.77;;;1.10;;
71387;SDS011;59201;59.902;10.520;2022-09-03T05:05:10;3.50;;;1.10;;
71387;SDS011;59201;59.902;10.520;2022-09-03T05:07:36;4.13;;;1.35;;
71387;SDS011;59201;59.902;10.520;2022-09-03T05:10:06;3.92;;;1.15;;
71387;SDS011;59201;59.902;10.520;2022-09-03T05:12:35;4.57;;;1.10;;
71387;SDS011;59201;59.902;10.520;2022-09-03T05:15:02;4.27;;;1.07;;
71387;SDS011;59201;59.902;10.520;2022-09-03T05:17:29;4.50;;;1.08;;
71387;SDS011;59201;59.902;10.520;2022-09-03T05:19:55;3.85;;;1.10;;
71387;SDS011;59201;59.902;10.520;2022-09-03T05:22:22;4.20;;;1.23;;
71387;SDS011;59201;59.902;10.520;2022-09-03T05:24:50;3.45;;;1.05;;
71387;SDS011;59201;59.902;10.520;2022-09-03T05:27:17;4.63;;;1.00;;
71387;SDS011;59201;59.902;10.520;2022-09-03T05:29:43;4.22;;;1.13;;
71387;SDS011;59201;59.902;10.520;2022-09-03T05:32:09;4.20;;;1.20;;
71387;SDS011;59201;59.902;10.520;2022-09-03T05:34:36;4.93;;;1.20;;
71387;SDS011;59201;59.902;10.520;2022-09-03T05:37:02;4.13;;;1.08;;
71387;SDS011;59201;59.902;10.520;2022-09-03T05:39:28;5.27;;;1.10;;
71387;SDS011;59201;59.902;10.520;2022-09-03T05:41:54;4.00;;;1.20;;
71387;SDS011;59201;59.902;10.520;2022-09-03T05:44:21;4.53;;;1.20;;
71387;SDS011;59201;59.902;10.520;2022-09-03T05:46:47;4.10;;;1.10;;
71387;SDS011;59201;59.902;10.520;2022-09-03T05:49:14;4.18;;;1.25;;
71387;SDS011;59201;59.902;10.520;2022-09-03T05:51:40;3.67;;;1.00;;
71387;SDS011;59201;59.902;10.520;2022-09-03T05:54:07;5.28;;;1.25;;
71387;SDS011;59201;59.902;10.520;2022-09-03T05:56:34;4.65;;;1.10;;
71387;SDS011;59201;59.902;10.520;2022-09-03T05:59:01;3.97;;;1.17;;
71387;SDS011;59201;59.902;10.520;2022-09-03T06:01:30;3.60;;;1.10;;
71387;SDS011;59201;59.902;10.520;2022-09-03T06:03:58;4.30;;;1.10;;
71387;SDS011;59201;59.902;10.520;2022-09-03T06:06:25;4.40;;;1.17;;
71387;SDS011;59201;59.902;10.520;2022-09-03T06:08:52;4.50;;;1.20;;
71387;SDS011;59201;59.902;10.520;2022-09-03T06:11:19;4.63;;;1.40;;
71387;SDS011;59201;59.902;10.520;2022-09-03T06:13:45;4.55;;;1.17;;
71387;SDS011;59201;59.902;10.520;2022-09-03T06:16:11;4.70;;;1.20;;
71387;SDS011;59201;59.902;10.520;2022-09-03T06:18:38;5.65;;;1.17;;
71387;SDS011;59201;59.902;10.520;2022-09-03T06:21:05;4.63;;;1.10;;
71387;SDS011;59201;59.902;10.520;2022-09-03T06:23:32;3.65;;;1.08;;
71387;SDS011;59201;59.902;10.520;2022-09-03T06:26:11;3.65;;;1.05;;
71387;SDS011;59201;59.902;10.520;2022-09-03T06:28:39;3.70;;;1.00;;
71387;SDS011;59201;59.902;10.520;2022-09-03T06:31:08;4.07;;;1.20;;
71387;SDS011;59201;59.902;10.520;2022-09-03T06:33:35;3.88;;;1.20;;
71387;SDS011;59201;59.902;10.520;2022-09-03T06:36:02;3.97;;;1.10;;
71387;SDS011;59201;59.902;10.520;2022-09-03T06:38:30;4.80;;;1.20;;
71387;SDS011;59201;59.902;10.520;2022-09-03T06:40:58;3.63;;;1.10;;
71387;SDS011;59201;59.902;10.520;2022-09-03T06:43:32;3.45;;;1.00;;
71387;SDS011;59201;59.902;10.520;2022-09-03T06:46:00;4.53;;;1.27;;
71387;SDS011;59201;59.902;10.520;2022-09-03T06:48:27;4.32;;;1.27;;
71387;SDS011;59201;59.902;10.520;2022-09-03T06:50:54;4.00;;;1.20;;
71387;SDS011;59201;59.902;10.520;2022-09-03T06:53:21;3.83;;;1.10;;
71387;SDS011;59201;59.902;10.520;2022-09-03T06:55:54;3.97;;;1.10;;
71387;SDS011;59201;59.902;10.520;2022-09-03T06:58:20;4.55;;;1.13;;
71387;SDS011;59201;59.902;10.520;2022-09-03T07:00:47;4.85;;;1.10;;
71387;SDS011;59201;59.902;10.520;2022-09-03T07:03:14;4.03;;;1.10;;
71387;SDS011;59201;59.902;10.520;2022-09-03T07:05:41;4.00;;;1.00;;
71387;SDS011;59201;59.902;10.520;2022-09-03T07:08:08;3.78;;;1.10;;
71387;SDS011;59201;59.902;10.520;2022-09-03T07:10:37;6.05;;;1.17;;
71387;SDS011;59201;59.902;10.520;2022-09-03T07:13:04;6.32;;;1.30;;
71387;SDS011;59201;59.902;10.520;2022-09-03T07:15:31;3.72;;;1.00;;
71387;SDS011;59201;59.902;10.520;2022-09-03T07:17:57;3.93;;;1.07;;
71387;SDS011;59201;59.902;10.520;2022-09-03T07:20:23;4.57;;;0.98;;
71387;SDS011;59201;59.902;10.520;2022-09-03T07:22:49;3.72;;;1.00;;
71387;SDS011;59201;59.902;10.520;2022-09-03T07:25:18;3.65;;;1.00;;
71387;SDS011;59201;59.902;10.520;2022-09-03T07:27:45;3.45;;;1.05;;
71387;SDS011;59201;59.902;10.520;2022-09-03T07:30:15;3.00;;;0.90;;
71387;SDS011;59201;59.902;10.520;2022-09-03T07:32:41;3.50;;;1.05;;
71387;SDS011;59201;59.902;10.520;2022-09-03T07:35:07;3.03;;;0.80;;
71387;SDS011;59201;59.902;10.520;2022-09-03T07:37:33;3.65;;;1.00;;
71387;SDS011;59201;59.902;10.520;2022-09-03T07:39:59;3.65;;;1.00;;
71387;SDS011;59201;59.902;10.520;2022-09-03T07:42:25;3.80;;;1.10;;
71387;SDS011;59201;59.902;10.520;2022-09-03T07:44:53;4.50;;;1.15;;
71387;SDS011;59201;59.902;10.520;2022-09-03T07:47:19;3.63;;;1.10;;
71387;SDS011;59201;59.902;10.520;2022-09-03T07:49:45;3.55;;;1.00;;
71387;SDS011;59201;59.902;10.520;2022-09-03T07:52:12;5.35;;;1.30;;
71387;SDS011;59201;59.902;10.520;2022-09-03T07:54:38;4.53;;;1.27;;
71387;SDS011;59201;59.902;10.520;2022-09-03T07:57:05;4.20;;;1.20;;
71387;SDS011;59201;59.902;10.520;2022-09-03T07:59:31;5.32;;;1.20;;
71387;SDS011;59201;59.902;10.520;2022-09-03T08:01:57;4.07;;;1.20;;
71387;SDS011;59201;59.902;10.520;2022-09-03T08:04:24;4.13;;;1.30;;
71387;SDS011;59201;59.902;10.520;2022-09-03T08:06:50;4.20;;;1.10;;
71387;SDS011;59201;59.902;10.520;2022-09-03T08:09:19;4.57;;;1.30;;
71387;SDS011;59201;59.902;10.520;2022-09-03T08:11:45;4.05;;;1.13;;
71387;SDS011;59201;59.902;10.520;2022-09-03T08:14:12;4.30;;;1.10;;
71387;SDS011;59201;59.902;10.520;2022-09-03T08:16:39;4.95;;;1.20;;
71387;SDS011;59201;59.902;10.520;2022-09-03T08:19:06;4.20;;;1.10;;
71387;SDS011;59201;59.902;10.520;2022-09-03T08:21:32;4.13;;;1.23;;
71387;SDS011;59201;59.902;10.520;2022-09-03T08:23:59;4.45;;;1.30;;
71387;SDS011;59201;59.902;10.520;2022-09-03T08:26:29;3.95;;;1.20;;
71387;SDS011;59201;59.902;10.520;2022-09-03T08:28:55;4.70;;;1.30;;
71387;SDS011;59201;59.902;10.520;2022-09-03T08:31:22;4.73;;;1.30;;
71387;SDS011;59201;59.902;10.520;2022-09-03T08:33:52;5.43;;;1.35;;
71387;SDS011;59201;59.902;10.520;2022-09-03T08:36:21;5.85;;;1.30;;
71387;SDS011;59201;59.902;10.520;2022-09-03T08:38:47;4.90;;;1.10;;
71387;SDS011;59201;59.902;10.520;2022-09-03T08:46:14;3.97;;;1.15;;
71387;SDS011;59201;59.902;10.520;2022-09-03T08:48:40;4.20;;;1.20;;
71387;SDS011;59201;59.902;10.520;2022-09-03T08:51:06;4.32;;;1.10;;
71387;SDS011;59201;59.902;10.520;2022-09-03T08:53:39;4.43;;;1.20;;
71387;SDS011;59201;59.902;10.520;2022-09-03T08:56:09;5.00;;;1.40;;
71387;SDS011;59201;59.902;10.520;2022-09-03T08:58:35;4.05;;;1.20;;
71387;SDS011;59201;59.902;10.520;2022-09-03T09:06:10;4.60;;;1.58;;
71387;SDS011;59201;59.902;10.520;2022-09-03T09:11:15;5.90;;;1.60;;
71387;SDS011;59201;59.902;10.520;2022-09-03T09:13:49;5.25;;;1.70;;
71387;SDS011;59201;59.902;10.520;2022-09-03T09:24:42;4.30;;;1.20;;
71387;SDS011;59201;59.902;10.520;2022-09-03T09:27:11;5.45;;;1.35;;
71387;SDS011;59201;59.902;10.520;2022-09-03T09:29:40;4.93;;;1.48;;
71387;SDS011;59201;59.902;10.520;2022-09-03T09:32:08;6.05;;;1.48;;
71387;SDS011;59201;59.902;10.520;2022-09-03T09:34:36;4.50;;;1.30;;
71387;SDS011;59201;59.902;10.520;2022-09-03T09:37:07;3.88;;;1.20;;
71387;SDS011;59201;59.902;10.520;2022-09-03T09:39:34;4.80;;;1.38;;
71387;SDS011;59201;59.902;10.520;2022-09-03T09:42:07;4.97;;;1.60;;
71387;SDS011;59201;59.902;10.520;2022-09-03T09:44:38;4.65;;;1.52;;
71387;SDS011;59201;59.902;10.520;2022-09-03T09:47:06;4.50;;;1.40;;
71387;SDS011;59201;59.902;10.520;2022-09-03T09:49:34;4.57;;;1.50;;
71387;SDS011;59201;59.902;10.520;2022-09-03T09:52:04;4.50;;;1.30;;
71387;SDS011;59201;59.902;10.520;2022-09-03T09:54:32;4.18;;;1.30;;
71387;SDS011;59201;59.902;10.520;2022-09-03T09:57:03;4.10;;;1.20;;
71387;SDS011;59201;59.902;10.520;2022-09-03T09:59:29;4.00;;;1.10;;
71387;SDS011;59201;59.902;10.520;2022-09-03T10:02:46;4.50;;;1.20;;
71387;SDS011;59201;59.902;10.520;2022-09-03T10:04:42;5.63;;;1.25;;
71387;SDS011;59201;59.902;10.520;2022-09-03T10:09:39;5.03;;;1.60;;
71387;SDS011;59201;59.902;10.520;2022-09-03T10:12:12;3.83;;;1.30;;
71387;SDS011;59201;59.902;10.520;2022-09-03T10:14:41;4.93;;;1.40;;
71387;SDS011;59201;59.902;10.520;2022-09-03T10:17:13;4.55;;;1.30;;
71387;SDS011;59201;59.902;10.520;2022-09-03T10:19:43;6.10;;;2.20;;
71387;SDS011;59201;59.902;10.520;2022-09-03T10:22:30;5.38;;;1.95;;
71387;SDS011;59201;59.902;10.520;2022-09-03T10:25:05;4.30;;;1.47;;
71387;SDS011;59201;59.902;10.520;2022-09-03T10:27:32;6.63;;;2.25;;
71387;SDS011;59201;59.902;10.520;2022-09-03T10:29:59;4.85;;;1.65;;
71387;SDS011;59201;59.902;10.520;2022-09-03T10:35:02;4.43;;;1.50;;
71387;SDS011;59201;59.902;10.520;2022-09-03T10:40:32;5.95;;;1.50;;
71387;SDS011;59201;59.902;10.520;2022-09-03T10:50:46;4.73;;;1.60;;
71387;SDS011;59201;59.902;10.520;2022-09-03T11:01:15;4.65;;;1.70;;
71387;SDS011;59201;59.902;10.520;2022-09-03T11:06:34;4.68;;;1.40;;
71387;SDS011;59201;59.902;10.520;2022-09-03T11:09:12;4.80;;;1.70;;
71387;SDS011;59201;59.902;10.520;2022-09-03T11:11:44;4.20;;;1.30;;
71387;SDS011;59201;59.902;10.520;2022-09-03T11:14:12;4.38;;;1.40;;
71387;SDS011;59201;59.902;10.520;2022-09-03T11:16:44;4.80;;;1.40;;
71387;SDS011;59201;59.902;10.520;2022-09-03T11:19:13;4.40;;;1.30;;
71387;SDS011;59201;59.902;10.520;2022-09-03T11:21:40;4.30;;;1.35;;
71387;SDS011;59201;59.902;10.520;2022-09-03T11:24:13;4.60;;;1.20;;
71387;SDS011;59201;59.902;10.520;2022-09-03T11:26:44;4.00;;;1.25;;
71387;SDS011;59201;59.902;10.520;2022-09-03T11:29:15;4.10;;;1.40;;
71387;SDS011;59201;59.902;10.520;2022-09-03T11:31:45;4.40;;;1.38;;
71387;SDS011;59201;59.902;10.520;2022-09-03T11:36:40;4.38;;;1.30;;
71387;SDS011;59201;59.902;10.520;2022-09-03T11:39:39;5.00;;;1.70;;
71387;SDS011;59201;59.902;10.520;2022-09-03T11:41:59;4.43;;;1.33;;
71387;SDS011;59201;59.902;10.520;2022-09-03T11:44:35;4.60;;;1.70;;
71387;SDS011;59201;59.902;10.520;2022-09-03T11:47:11;4.20;;;1.40;;
71387;SDS011;59201;59.902;10.520;2022-09-03T11:49:42;4.32;;;1.45;;
71387;SDS011;59201;59.902;10.520;2022-09-03T11:52:09;4.10;;;1.30;;
71387;SDS011;59201;59.902;10.520;2022-09-03T11:54:43;4.10;;;1.20;;
71387;SDS011;59201;59.902;10.520;2022-09-03T11:57:20;4.25;;;1.40;;
71387;SDS011;59201;59.902;10.520;2022-09-03T11:59:47;4.63;;;1.30;;
71387;SDS011;59201;59.902;10.520;2022-09-03T12:18:04;6.05;;;1.30;;
71387;SDS011;59201;59.902;10.520;2022-09-03T12:20:44;4.77;;;1.10;;
71387;SDS011;59201;59.902;10.520;2022-09-03T12:23:24;4.45;;;1.30;;
71387;SDS011;59201;59.902;10.520;2022-09-03T12:25:52;4.28;;;1.30;;
71387;SDS011;59201;59.902;10.520;2022-09-03T12:28:19;4.45;;;1.10;;
71387;SDS011;59201;59.902;10.520;2022-09-03T12:30:47;4.43;;;1.40;;
71387;SDS011;59201;59.902;10.520;2022-09-03T12:33:18;4.23;;;1.20;;
71387;SDS011;59201;59.902;10.520;2022-09-03T12:35:57;3.65;;;1.15;;
71387;SDS011;59201;59.902;10.520;2022-09-03T12:38:25;5.55;;;1.35;;
71387;SDS011;59201;59.902;10.520;2022-09-03T12:40:51;4.78;;;1.40;;
71387;SDS011;59201;59.902;10.520;2022-09-03T12:43:18;4.50;;;1.40;;
71387;SDS011;59201;59.902;10.520;2022-09-03T12:45:48;4.00;;;1.30;;
71387;SDS011;59201;59.902;10.520;2022-09-03T12:48:15;4.00;;;1.10;;
71387;SDS011;59201;59.902;10.520;2022-09-03T12:50:42;5.35;;;1.40;;
71387;SDS011;59201;59.902;10.520;2022-09-03T12:53:09;3.80;;;1.30;;
71387;SDS011;59201;59.902;10.520;2022-09-03T12:55:54;3.97;;;1.17;;
71387;SDS011;59201;59.902;10.520;2022-09-03T13:03:24;4.75;;;1.15;;
71387;SDS011;59201;59.902;10.520;2022-09-03T13:05:53;4.25;;;1.30;;
71387;SDS011;59201;59.902;10.520;2022-09-03T13:08:25;5.30;;;1.30;;
71387;SDS011;59201;59.902;10.520;2022-09-03T13:10:54;4.20;;;1.30;;
71387;SDS011;59201;59.902;10.520;2022-09-03T13:13:27;3.55;;;1.02;;
71387;SDS011;59201;59.902;10.520;2022-09-03T13:18:43;3.90;;;1.20;;
71387;SDS011;59201;59.902;10.520;2022-09-03T13:23:49;4.37;;;1.10;;
71387;SDS011;59201;59.902;10.520;2022-09-03T13:26:26;4.20;;;1.30;;
71387;SDS011;59201;59.902;10.520;2022-09-03T13:31:44;4.70;;;1.20;;
71387;SDS011;59201;59.902;10.520;2022-09-03T13:34:22;4.88;;;1.25;;
71387;SDS011;59201;59.902;10.520;2022-09-03T13:36:54;3.60;;;1.00;;
71387;SDS011;59201;59.902;10.520;2022-09-03T13:39:42;4.00;;;1.10;;
71387;SDS011;59201;59.902;10.520;2022-09-03T13:42:12;3.83;;;1.10;;
71387;SDS011;59201;59.902;10.520;2022-09-03T13:47:25;4.00;;;1.30;;
71387;SDS011;59201;59.902;10.520;2022-09-03T13:52:47;4.25;;;1.30;;
71387;SDS011;59201;59.902;10.520;2022-09-03T13:55:22;4.13;;;1.30;;
71387;SDS011;59201;59.902;10.520;2022-09-03T13:57:55;4.53;;;1.20;;
71387;SDS011;59201;59.902;10.520;2022-09-03T14:00:25;4.47;;;1.25;;
71387;SDS011;59201;59.902;10.520;2022-09-03T14:02:56;4.47;;;1.20;;
71387;SDS011;59201;59.902;10.520;2022-09-03T14:05:42;4.05;;;1.20;;
71387;SDS011;59201;59.902;10.520;2022-09-03T14:10:58;4.28;;;1.13;;
71387;SDS011;59201;59.902;10.520;2022-09-03T14:18:44;4.03;;;1.20;;
71387;SDS011;59201;59.902;10.520;2022-09-03T14:21:16;6.53;;;1.40;;
71387;SDS011;59201;59.902;10.520;2022-09-03T14:23:54;4.45;;;1.38;;
71387;SDS011;59201;59.902;10.520;2022-09-03T14:26:26;4.95;;;1.35;;
71387;SDS011;59201;59.902;10.520;2022-09-03T14:29:02;3.87;;;1.20;;
71387;SDS011;59201;59.902;10.520;2022-09-03T14:34:10;4.70;;;1.30;;
71387;SDS011;59201;59.902;10.520;2022-09-03T15:00:00;4.40;;;1.30;;
71387;SDS011;59201;59.902;10.520;2022-09-03T15:10:11;3.30;;;1.00;;
71387;SDS011;59201;59.902;10.520;2022-09-03T15:12:44;4.13;;;1.35;;
71387;SDS011;59201;59.902;10.520;2022-09-03T15:15:12;3.88;;;1.20;;
71387;SDS011;59201;59.902;10.520;2022-09-03T15:17:43;4.32;;;1.20;;
71387;SDS011;59201;59.902;10.520;2022-09-03T15:22:50;4.03;;;1.10;;
71387;SDS011;59201;59.902;10.520;2022-09-03T15:25:29;6.43;;;1.30;;
71387;SDS011;59201;59.902;10.520;2022-09-03T15:30:43;4.15;;;1.40;;
71387;SDS011;59201;59.902;10.520;2022-09-03T15:40:56;3.97;;;1.20;;
71387;SDS011;59201;59.902;10.520;2022-09-03T15:43:27;4.40;;;1.42;;
71387;SDS011;59201;59.902;10.520;2022-09-03T15:45:55;3.67;;;1.10;;
71387;SDS011;59201;59.902;10.520;2022-09-03T15:53:55;3.83;;;1.30;;
71387;SDS011;59201;59.902;10.520;2022-09-03T16:01:38;4.32;;;1.42;;
71387;SDS011;59201;59.902;10.520;2022-09-03T16:06:49;4.50;;;1.45;;
71387;SDS011;59201;59.902;10.520;2022-09-03T16:09:19;4.25;;;1.45;;
71387;SDS011;59201;59.902;10.520;2022-09-03T16:11:52;5.07;;;1.50;;
71387;SDS011;59201;59.902;10.520;2022-09-03T16:14:22;4.10;;;1.30;;
71387;SDS011;59201;59.902;10.520;2022-09-03T16:19:24;5.55;;;1.50;;
71387;SDS011;59201;59.902;10.520;2022-09-03T16:21:57;4.88;;;1.80;;
71387;SDS011;59201;59.902;10.520;2022-09-03T16:27:06;5.57;;;1.60;;
71387;SDS011;59201;59.902;10.520;2022-09-03T16:29:34;5.45;;;1.70;;
71387;SDS011;59201;59.902;10.520;2022-09-03T16:32:22;4.70;;;1.33;;
71387;SDS011;59201;59.902;10.520;2022-09-03T16:42:39;4.20;;;1.40;;
71387;SDS011;59201;59.902;10.520;2022-09-03T16:45:08;5.75;;;1.50;;
71387;SDS011;59201;59.902;10.520;2022-09-03T17:00:44;4.50;;;1.60;;
71387;SDS011;59201;59.902;10.520;2022-09-03T17:03:16;5.47;;;1.67;;
71387;SDS011;59201;59.902;10.520;2022-09-03T17:05:53;5.85;;;1.80;;
71387;SDS011;59201;59.902;10.520;2022-09-03T17:54:20;4.97;;;1.63;;
71387;SDS011;59201;59.902;10.520;2022-09-03T18:01:57;5.03;;;1.70;;
71387;SDS011;59201;59.902;10.520;2022-09-03T18:07:13;4.75;;;1.60;;
71387;SDS011;59201;59.902;10.520;2022-09-03T18:10:01;5.00;;;1.50;;
71387;SDS011;59201;59.902;10.520;2022-09-03T18:12:52;6.65;;;1.65;;
71387;SDS011;59201;59.902;10.520;2022-09-03T18:15:25;5.75;;;2.40;;
71387;SDS011;59201;59.902;10.520;2022-09-03T18:20:25;7.38;;;3.03;;
71387;SDS011;59201;59.902;10.520;2022-09-03T18:23:15;6.30;;;2.70;;
71387;SDS011;59201;59.902;10.520;2022-09-03T18:26:03;6.18;;;2.63;;
71387;SDS011;59201;59.902;10.520;2022-09-03T18:28:50;6.32;;;2.60;;
71387;SDS011;59201;59.902;10.520;2022-09-03T18:31:35;6.47;;;2.65;;
71387;SDS011;59201;59.902;10.520;2022-09-03T18:34:20;9.10;;;3.83;;
71387;SDS011;59201;59.902;10.520;2022-09-03T18:37:06;7.50;;;3.17;;
71387;SDS011;59201;59.902;10.520;2022-09-03T18:39:51;7.55;;;3.28;;
71387;SDS011;59201;59.902;10.520;2022-09-03T18:48:19;9.27;;;3.85;;
71387;SDS011;59201;59.902;10.520;2022-09-03T18:54:06;7.93;;;3.17;;
71387;SDS011;59201;59.902;10.520;2022-09-03T18:56:55;7.15;;;3.30;;
71387;SDS011;59201;59.902;10.520;2022-09-03T19:02:28;6.90;;;2.88;;
71387;SDS011;59201;59.902;10.520;2022-09-03T19:05:21;6.50;;;2.80;;
71387;SDS011;59201;59.902;10.520;2022-09-03T19:08:24;6.43;;;2.72;;
71387;SDS011;59201;59.902;10.520;2022-09-03T19:14:18;7.15;;;2.55;;
71387;SDS011;59201;59.902;10.520;2022-09-03T19:17:19;6.05;;;2.70;;
71387;SDS011;59201;59.902;10.520;2022-09-03T19:20:08;6.83;;;2.90;;
71387;SDS011;59201;59.902;10.520;2022-09-03T19:22:57;6.80;;;2.47;;
71387;SDS011;59201;59.902;10.520;2022-09-03T19:25:41;6.45;;;2.40;;
71387;SDS011;59201;59.902;10.520;2022-09-03T19:28:30;6.15;;;2.40;;
71387;SDS011;59201;59.902;10.520;2022-09-03T19:37:54;5.70;;;2.50;;
71387;SDS011;59201;59.902;10.520;2022-09-03T19:54:18;6.00;;;2.80;;
71387;SDS011;59201;59.902;10.520;2022-09-03T19:57:04;5.70;;;2.60;;
71387;SDS011;59201;59.902;10.520;2022-09-03T19:59:49;6.22;;;2.40;;
71387;SDS011;59201;59.902;10.520;2022-09-03T20:02:33;6.87;;;2.30;;
71387;SDS011;59201;59.902;10.520;2022-09-03T20:05:19;6.10;;;2.40;;
71387;SDS011;59201;59.902;10.520;2022-09-03T20:08:04;6.38;;;2.70;;
71387;SDS011;59201;59.902;10.520;2022-09-03T20:10:51;5.70;;;2.60;;
71387;SDS011;59201;59.902;10.520;2022-09-03T20:13:19;7.95;;;2.97;;
71387;SDS011;59201;59.902;10.520;2022-09-03T20:20:48;5.80;;;2.58;;
71387;SDS011;59201;59.902;10.520;2022-09-03T20:23:29;6.57;;;2.63;;
71387;SDS011;59201;59.902;10.520;2022-09-03T20:45:54;5.85;;;2.67;;
71387;SDS011;59201;59.902;10.520;2022-09-03T20:51:15;7.10;;;2.63;;
71387;SDS011;59201;59.902;10.520;2022-09-03T20:53:49;6.40;;;2.70;;
71387;SDS011;59201;59.902;10.520;2022-09-03T21:06:45;5.70;;;2.63;;
71387;SDS011;59201;59.902;10.520;2022-09-03T21:11:42;5.88;;;2.40;;
71387;SDS011;59201;59.902;10.520;2022-09-03T21:14:16;6.10;;;2.50;;